Time;durP1;ratioP1;P1;durP2;ratioP2;P2;SDS_P1;SDS_P2;PMS_P1;PMS_P2;Temp;Humidity;BMP_temperature;BMP_pressure;BME280_temperature;BME280_humidity;BME280_pressure;Samples;Min_cycle;Max_cycle;Signal;HPM_P1;HPM_P2
2023/11/15 00:00:25;;;;;;;3.30;2.00;;;;;;;9.87;77.91;97153.23;108844;1257;59175;-85
2023/11/15 00:02:52;;;;;;;2.80;1.90;;;;;;;9.88;77.80;97165.83;108788;1257;72623;-86
2023/11/15 00:05:19;;;;;;;2.90;2.00;;;;;;;9.88;77.84;97169.94;108761;1257;73999;-86
2023/11/15 00:07:47;;;;;;;2.40;1.50;;;;;;;9.89;77.67;97167.02;108768;1257;72426;-85
2023/11/15 00:10:14;;;;;;;2.60;1.60;;;;;;;9.88;77.46;97159.89;108863;1257;62630;-86
2023/11/15 00:12:42;;;;;;;5.10;1.50;;;;;;;9.89;77.23;97156.45;108899;1257;59316;-84
2023/11/15 00:15:09;;;;;;;3.00;1.50;;;;;;;9.89;77.07;97160.38;108836;1257;73656;-86
2023/11/15 00:17:36;;;;;;;4.90;2.10;;;;;;;9.90;77.14;97155.99;108908;1260;73285;-85
2023/11/15 00:20:04;;;;;;;2.10;1.60;;;;;;;9.91;76.84;97145.88;108878;1257;71316;-85
2023/11/15 00:22:31;;;;;;;2.30;1.50;;;;;;;9.92;76.77;97142.23;108863;1257;61973;-86
2023/11/15 00:24:59;;;;;;;3.90;2.20;;;;;;;9.93;76.67;97135.73;108849;1257;61660;-86
2023/11/15 00:27:28;;;;;;;4.30;1.40;;;;;;;9.94;76.55;97134.93;108938;1257;71790;-86
2023/11/15 00:29:56;;;;;;;3.20;2.10;;;;;;;9.94;76.37;97130.83;109105;1257;73036;-86
2023/11/15 00:32:23;;;;;;;4.90;1.90;;;;;;;9.95;76.19;97133.75;109179;1256;70874;-85
2023/11/15 00:34:50;;;;;;;4.50;1.70;;;;;;;9.95;76.26;97137.65;109116;1257;61061;-85
2023/11/15 00:37:17;;;;;;;3.80;2.20;;;;;;;9.96;76.01;97143.30;109156;1257;58962;-85
2023/11/15 00:39:44;;;;;;;3.60;2.00;;;;;;;9.96;76.04;97145.84;109135;1256;71719;-85
2023/11/15 00:42:11;;;;;;;3.10;1.50;;;;;;;9.96;75.79;97156.40;109133;1257;72777;-85
2023/11/15 00:44:41;;;;;;;3.10;1.70;;;;;;;9.96;75.72;97160.83;108984;1256;72394;-84
2023/11/15 00:47:08;;;;;;;5.00;1.30;;;;;;;9.97;75.60;97161.52;108980;1257;60806;-83
2023/11/15 00:49:37;;;;;;;3.90;1.60;;;;;;;9.97;75.40;97157.73;109100;1260;58853;-85
2023/11/15 00:52:04;;;;;;;2.10;1.40;;;;;;;9.97;75.23;97152.21;108868;1257;72625;-84
2023/11/15 00:54:32;;;;;;;3.90;1.70;;;;;;;9.97;75.15;97151.63;108846;1257;74245;-85
2023/11/15 00:56:59;;;;;;;3.60;1.70;;;;;;;9.98;75.03;97156.05;108838;1257;71838;-86
2023/11/15 00:59:36;;;;;;;5.80;2.10;;;;;;;9.99;74.88;97146.15;108788;1257;60712;-86
2023/11/15 01:02:05;;;;;;;3.00;1.60;;;;;;;10.00;74.96;97130.13;108885;1258;60533;-84
2023/11/15 01:04:32;;;;;;;4.60;2.30;;;;;;;10.01;74.84;97131.30;108819;1257;72412;-84
2023/11/15 01:07:00;;;;;;;2.80;1.50;;;;;;;10.00;75.00;97142.42;108885;1257;72573;-84
2023/11/15 01:09:27;;;;;;;4.70;1.70;;;;;;;10.00;75.04;97134.57;108993;1257;71180;-85
2023/11/15 01:11:55;;;;;;;2.40;1.40;;;;;;;10.00;74.89;97139.95;109006;1257;60211;-85
2023/11/15 01:14:22;;;;;;;3.70;1.30;;;;;;;9.99;75.08;97152.17;108909;1257;60016;-85
2023/11/15 01:16:49;;;;;;;3.30;1.70;;;;;;;9.99;74.95;97153.61;109011;1256;72475;-84
2023/11/15 01:19:16;;;;;;;2.40;1.40;;;;;;;9.99;75.07;97146.81;109095;1257;73008;-85
2023/11/15 01:21:43;;;;;;;3.70;1.80;;;;;;;9.99;75.06;97145.89;108980;1257;72547;-85
2023/11/15 01:24:10;;;;;;;4.10;1.40;;;;;;;9.99;75.11;97138.04;108873;1258;60455;-85
2023/11/15 01:26:37;;;;;;;5.10;2.10;;;;;;;9.99;75.22;97138.10;108901;1257;60109;-86
2023/11/15 01:29:04;;;;;;;2.50;1.60;;;;;;;9.99;75.31;97143.62;108757;1257;73837;-84
2023/11/15 01:31:31;;;;;;;4.70;2.00;;;;;;;9.98;75.32;97137.75;108805;1257;75551;-83
2023/11/15 01:33:58;;;;;;;4.00;1.70;;;;;;;9.98;75.55;97130.85;108909;1257;72864;-86
2023/11/15 01:36:26;;;;;;;3.20;1.60;;;;;;;9.96;75.18;97119.16;108853;1257;61913;-84
2023/11/15 01:38:53;;;;;;;4.20;1.60;;;;;;;9.97;75.28;97108.92;108934;1257;59327;-83
2023/11/15 01:41:20;;;;;;;3.30;1.40;;;;;;;9.97;75.21;97113.58;109004;1256;73048;-85
2023/11/15 01:43:47;;;;;;;1.90;1.30;;;;;;;9.96;75.08;97118.64;108929;1257;72798;-85
2023/11/15 01:46:14;;;;;;;2.60;1.40;;;;;;;9.96;75.27;97109.19;108894;1256;71051;-85
2023/11/15 01:48:41;;;;;;;29.00;3.60;;;;;;;9.95;75.28;97109.05;108738;1256;61204;-84
2023/11/15 01:51:10;;;;;;;3.70;1.50;;;;;;;9.94;75.05;97113.08;108891;1256;58935;-84
2023/11/15 01:53:38;;;;;;;3.90;1.60;;;;;;;9.93;74.94;97106.61;108899;1256;73731;-84
2023/11/15 01:56:08;;;;;;;3.60;1.50;;;;;;;9.93;75.11;97109.60;109001;1256;72978;-86
2023/11/15 01:58:35;;;;;;;4.80;1.80;;;;;;;9.92;75.23;97113.81;108902;1256;71173;-86
2023/11/15 02:01:05;;;;;;;4.90;1.40;;;;;;;9.91;75.22;97117.27;108846;1257;61782;-86
2023/11/15 02:03:32;;;;;;;2.20;1.30;;;;;;;9.91;75.14;97110.18;109005;1256;60451;-85
2023/11/15 02:05:59;;;;;;;3.00;1.40;;;;;;;9.90;75.39;97109.90;108956;1257;71394;-85
2023/11/15 02:08:26;;;;;;;3.80;2.00;;;;;;;9.89;75.79;97111.36;108969;1256;72809;-83
2023/11/15 02:10:54;;;;;;;3.40;1.70;;;;;;;9.88;75.78;97099.49;108866;1256;72310;-85
2023/11/15 02:13:25;;;;;;;4.80;2.10;;;;;;;9.87;76.06;97100.45;108812;1257;60434;-85
2023/11/15 02:15:56;;;;;;;4.40;1.60;;;;;;;9.86;76.13;97094.98;108893;1256;60690;-85
2023/11/15 02:18:25;;;;;;;3.30;1.80;;;;;;;9.84;76.18;97099.29;108889;1257;72155;-86
2023/11/15 02:20:53;;;;;;;4.40;1.70;;;;;;;9.82;76.52;97092.02;108849;1256;74370;-85
2023/11/15 02:23:23;;;;;;;4.70;2.00;;;;;;;9.81;76.70;97096.23;108921;1257;71405;-86
2023/11/15 02:25:51;;;;;;;4.40;1.90;;;;;;;9.79;76.85;97104.42;108918;1256;60461;-85
2023/11/15 02:28:18;;;;;;;4.30;2.10;;;;;;;9.77;76.97;97099.73;108842;1256;59552;-85
2023/11/15 02:30:45;;;;;;;3.10;1.60;;;;;;;9.75;77.23;97095.06;108865;1256;73582;-85
2023/11/15 02:33:13;;;;;;;3.10;1.60;;;;;;;9.73;77.32;97107.44;108804;1257;72979;-85
2023/11/15 02:35:41;;;;;;;4.50;1.60;;;;;;;9.70;77.72;97110.31;108773;1257;72673;-85
2023/11/15 02:38:08;;;;;;;7.60;2.20;;;;;;;9.68;77.85;97109.08;108806;1257;62681;-85
2023/11/15 02:40:35;;;;;;;4.30;1.50;;;;;;;9.67;77.94;97109.01;108862;1256;61113;-86
2023/11/15 02:43:10;;;;;;;2.20;1.40;;;;;;;9.66;78.09;97097.49;108915;1256;74931;-85
2023/11/15 02:45:37;;;;;;;4.60;1.70;;;;;;;9.65;78.33;97101.48;108909;1256;74274;-86
2023/11/15 02:48:04;;;;;;;3.00;1.90;;;;;;;9.64;78.47;97099.26;108874;1257;73552;-86
2023/11/15 02:50:31;;;;;;;4.70;2.50;;;;;;;9.63;78.56;97096.09;108802;1257;63135;-86
2023/11/15 02:52:59;;;;;;;7.10;3.90;;;;;;;9.62;78.98;97101.55;108816;1257;58965;-86
2023/11/15 02:55:26;;;;;;;6.70;3.00;;;;;;;9.61;79.21;97112.00;108822;1257;73764;-86
2023/11/15 02:57:53;;;;;;;9.30;2.60;;;;;;;9.59;79.43;97107.17;108835;1257;73027;-86
2023/11/15 03:00:20;;;;;;;3.80;2.30;;;;;;;9.58;79.33;97106.55;108801;1257;72647;-86
2023/11/15 03:02:49;;;;;;;2.70;1.60;;;;;;;9.56;79.58;97106.51;108805;1257;60593;-86
2023/11/15 03:05:17;;;;;;;4.00;1.90;;;;;;;9.56;79.69;97110.67;108840;1257;60211;-86
2023/11/15 03:07:44;;;;;;;5.00;1.90;;;;;;;9.55;79.65;97113.77;108803;1257;73160;-85
2023/11/15 03:10:11;;;;;;;5.30;2.00;;;;;;;9.54;79.88;97113.85;108855;1257;74349;-86
2023/11/15 03:12:38;;;;;;;3.70;1.70;;;;;;;9.54;79.90;97116.88;108814;1256;73428;-86
2023/11/15 03:15:06;;;;;;;4.40;2.20;;;;;;;9.54;79.87;97123.55;108884;1256;61994;-86
2023/11/15 03:17:33;;;;;;;4.90;2.00;;;;;;;9.54;79.90;97120.30;108838;1256;60237;-86
2023/11/15 03:20:05;;;;;;;6.00;1.80;;;;;;;9.54;79.75;97124.95;108747;1260;73519;-86
2023/11/15 03:22:33;;;;;;;4.40;1.70;;;;;;;9.54;79.80;97124.05;108879;1256;73386;-86
2023/11/15 03:25:00;;;;;;;3.90;1.60;;;;;;;9.55;79.82;97124.70;108862;1256;71385;-85
2023/11/15 03:27:28;;;;;;;5.70;2.00;;;;;;;9.55;79.90;97128.23;108893;1256;60583;-86
2023/11/15 03:29:55;;;;;;;3.40;1.90;;;;;;;9.55;80.01;97126.46;108777;1256;59019;-86
2023/11/15 03:32:22;;;;;;;3.20;1.50;;;;;;;9.56;80.20;97126.41;108940;1256;72288;-84
2023/11/15 03:34:50;;;;;;;4.20;1.60;;;;;;;9.56;80.02;97127.61;109081;1256;74200;-84
2023/11/15 03:37:17;;;;;;;4.30;2.00;;;;;;;9.57;80.23;97125.42;108955;1256;72207;-84
2023/11/15 03:39:45;;;;;;;7.10;2.10;;;;;;;9.58;80.24;97125.66;108962;1256;61117;-85
2023/11/15 03:42:12;;;;;;;3.50;1.60;;;;;;;9.59;80.22;97132.73;109088;1256;60624;-84
2023/11/15 03:44:39;;;;;;;5.90;2.00;;;;;;;9.59;80.45;97131.63;109083;1256;73814;-84
2023/11/15 03:47:06;;;;;;;3.80;2.00;;;;;;;9.60;80.67;97126.92;109187;1256;74022;-85
2023/11/15 03:49:33;;;;;;;6.30;1.80;;;;;;;9.60;80.77;97121.92;109091;1257;71378;-85
2023/11/15 03:52:00;;;;;;;4.20;2.30;;;;;;;9.61;81.32;97124.89;108912;1257;63978;-86
2023/11/15 03:54:27;;;;;;;3.70;1.90;;;;;;;9.62;81.76;97121.26;109034;1257;60461;-85
2023/11/15 03:56:54;;;;;;;5.10;2.00;;;;;;;9.63;81.79;97114.38;108887;1257;71980;-84
2023/11/15 03:59:21;;;;;;;3.90;2.20;;;;;;;9.63;82.19;97115.82;108906;1257;72719;-84
2023/11/15 04:01:49;;;;;;;4.60;2.30;;;;;;;9.63;82.35;97115.23;108960;1257;72731;-86
2023/11/15 04:04:24;;;;;;;3.60;1.70;;;;;;;9.63;82.38;97109.68;108807;1257;61929;-86
2023/11/15 04:06:52;;;;;;;7.00;2.20;;;;;;;9.63;82.51;97110.80;108855;1257;61249;-86
2023/11/15 04:09:20;;;;;;;7.10;6.40;;;;;;;9.62;82.62;97106.05;108854;1257;73063;-86
2023/11/15 04:11:48;;;;;;;6.20;4.40;;;;;;;9.62;82.43;97106.39;108823;1257;73394;-86
2023/11/15 04:14:17;;;;;;;3.80;2.20;;;;;;;9.62;82.66;97101.40;108917;1256;72749;-86
2023/11/15 04:16:44;;;;;;;5.80;2.30;;;;;;;9.62;82.70;97106.02;108880;1256;61165;-86
2023/11/15 04:19:11;;;;;;;5.80;2.10;;;;;;;9.62;82.69;97105.69;108805;1257;60436;-86
2023/11/15 04:21:38;;;;;;;2.70;2.00;;;;;;;9.62;82.89;97093.35;108824;1257;73719;-86
2023/11/15 04:24:05;;;;;;;3.60;1.80;;;;;;;9.62;82.88;97093.49;108808;1257;74445;-86
2023/11/15 04:26:32;;;;;;;3.00;1.40;;;;;;;9.63;82.97;97096.81;108605;1257;72667;-86
2023/11/15 04:28:59;;;;;;;7.00;2.40;;;;;;;9.63;83.20;97093.04;108787;1257;61945;-86
2023/11/15 04:31:27;;;;;;;5.20;1.80;;;;;;;9.64;83.19;97091.77;108838;1257;59814;-86
2023/11/15 04:33:55;;;;;;;5.40;2.20;;;;;;;9.64;83.20;97088.17;108910;1256;72561;-87
2023/11/15 04:36:23;;;;;;;3.80;1.80;;;;;;;9.65;83.31;97087.19;108909;1256;72913;-86
2023/11/15 04:38:50;;;;;;;5.20;2.60;;;;;;;9.66;83.58;97085.36;108830;1256;70741;-86
2023/11/15 04:41:17;;;;;;;5.30;1.80;;;;;;;9.66;83.40;97084.92;108812;1257;63070;-87
2023/11/15 04:43:44;;;;;;;4.60;1.70;;;;;;;9.66;83.65;97083.90;108849;1257;60279;-86
2023/11/15 04:46:11;;;;;;;4.90;1.60;;;;;;;9.67;84.07;97083.08;108862;1257;73623;-87
2023/11/15 04:48:38;;;;;;;2.40;1.90;;;;;;;9.66;84.16;97084.94;108869;1256;73123;-86
2023/11/15 04:51:06;;;;;;;2.70;2.20;;;;;;;9.66;84.18;97081.20;108848;1256;72328;-85
2023/11/15 04:53:33;;;;;;;2.20;2.00;;;;;;;9.67;84.35;97083.09;108907;1256;60709;-85
2023/11/15 04:56:02;;;;;;;2.30;1.70;;;;;;;9.66;84.52;97087.06;108827;1257;61203;-86
2023/11/15 04:58:30;;;;;;;4.00;2.20;;;;;;;9.66;84.50;97086.52;108891;1256;73936;-85
2023/11/15 05:00:57;;;;;;;2.20;1.60;;;;;;;9.67;84.59;97085.96;108856;1256;75399;-86
2023/11/15 05:03:25;;;;;;;3.30;1.70;;;;;;;9.68;84.93;97081.95;108955;1256;72405;-85
2023/11/15 05:05:52;;;;;;;3.20;1.80;;;;;;;9.68;84.86;97081.06;108914;1256;62056;-88
2023/11/15 05:08:19;;;;;;;3.30;1.80;;;;;;;9.68;84.94;97084.41;108944;1256;60035;-85
2023/11/15 05:10:46;;;;;;;2.50;1.90;;;;;;;9.69;85.01;97082.55;108881;1256;72958;-85
2023/11/15 05:13:13;;;;;;;2.20;1.60;;;;;;;9.69;85.09;97075.24;108958;1256;73132;-85
2023/11/15 05:15:40;;;;;;;2.70;1.60;;;;;;;9.68;85.39;97071.54;109049;1256;72591;-84
2023/11/15 05:18:07;;;;;;;3.30;1.80;;;;;;;9.68;85.66;97075.80;109110;1259;63026;-86
2023/11/15 05:20:35;;;;;;;2.30;1.60;;;;;;;9.68;85.75;97076.34;108862;1257;59134;-86
2023/11/15 05:23:03;;;;;;;3.10;1.60;;;;;;;9.68;85.73;97071.59;108823;1259;73822;-84
2023/11/15 05:25:30;;;;;;;2.20;1.50;;;;;;;9.67;85.79;97070.02;108845;1257;72874;-86
2023/11/15 05:27:57;;;;;;;2.60;1.70;;;;;;;9.66;86.02;97069.58;108830;1257;72417;-86
2023/11/15 05:30:24;;;;;;;3.20;1.60;;;;;;;9.66;86.22;97074.98;108848;1257;60965;-86
2023/11/15 05:32:51;;;;;;;3.60;2.10;;;;;;;9.66;86.55;97069.19;108844;1256;59458;-86
2023/11/15 05:35:18;;;;;;;3.50;2.40;;;;;;;9.66;86.91;97064.06;108905;1256;73224;-84
2023/11/15 05:37:45;;;;;;;2.30;2.10;;;;;;;9.65;86.97;97068.56;108688;1256;73331;-85
2023/11/15 05:40:13;;;;;;;2.00;1.80;;;;;;;9.65;87.13;97061.81;108801;1259;73069;-86
2023/11/15 05:42:40;;;;;;;3.90;2.20;;;;;;;9.65;87.26;97067.02;108847;1256;61880;-86
2023/11/15 05:45:10;;;;;;;2.40;1.70;;;;;;;9.65;87.50;97064.65;108845;1256;59037;-86
2023/11/15 05:47:39;;;;;;;2.00;1.70;;;;;;;9.65;87.55;97061.85;108755;1256;73775;-87
2023/11/15 05:50:09;;;;;;;2.00;1.70;;;;;;;9.65;87.64;97061.09;108674;1257;76269;-87
2023/11/15 05:52:40;;;;;;;2.50;1.70;;;;;;;9.64;88.03;97057.21;108796;1257;72583;-87
2023/11/15 05:55:08;;;;;;;2.20;2.00;;;;;;;9.64;88.25;97061.51;108798;1257;60642;-86
2023/11/15 05:57:36;;;;;;;3.50;2.10;;;;;;;9.64;88.55;97069.04;108801;1257;59291;-86
2023/11/15 06:00:10;;;;;;;1.80;1.20;;;;;;;9.63;89.26;97075.36;108655;1257;72754;-84
2023/11/15 06:02:43;;;;;;;2.70;1.90;;;;;;;9.62;89.54;97074.79;108588;1257;73297;-87
2023/11/15 06:05:11;;;;;;;2.20;1.90;;;;;;;9.62;89.79;97084.27;108416;1257;71770;-86
2023/11/15 06:07:38;;;;;;;3.60;3.00;;;;;;;9.61;90.37;97088.20;108746;1257;60447;-86
2023/11/15 06:10:08;;;;;;;4.20;3.40;;;;;;;9.61;91.20;97094.30;108776;1256;61883;-87
2023/11/15 06:12:36;;;;;;;3.00;2.10;;;;;;;9.59;91.55;97096.58;108665;1256;73902;-85
2023/11/15 06:15:09;;;;;;;2.80;1.60;;;;;;;9.58;92.16;97095.30;108763;1256;74361;-87
2023/11/15 06:17:39;;;;;;;2.20;1.60;;;;;;;9.56;92.68;97097.27;108714;1256;73673;-87
2023/11/15 06:20:10;;;;;;;2.90;2.00;;;;;;;9.54;93.16;97092.98;108666;1256;62368;-86
2023/11/15 06:22:38;;;;;;;2.00;1.60;;;;;;;9.52;93.66;97095.30;108556;1256;59535;-87
2023/11/15 06:25:08;;;;;;;4.80;1.90;;;;;;;9.49;94.20;97093.70;108592;1256;73746;-88
2023/11/15 06:27:35;;;;;;;3.40;2.30;;;;;;;9.48;94.84;97094.77;108743;1259;74803;-86
2023/11/15 06:30:08;;;;;;;2.90;2.40;;;;;;;9.45;95.55;97092.83;108830;1256;71439;-90
2023/11/15 06:36:47;;;;;;;;;;;;;;;9.37;97.31;97094.39;108099;1262;61277;-88
2023/11/15 06:39:21;;;;;;;2.70;2.00;;;;;;;9.33;98.02;97092.81;108459;1262;73678;-87
2023/11/15 06:41:50;;;;;;;4.40;2.20;;;;;;;9.30;98.71;97094.98;108268;1262;74785;-88
2023/11/15 06:44:17;;;;;;;3.20;2.90;;;;;;;9.28;99.33;97099.48;108142;1264;72702;-88
2023/11/15 06:46:44;;;;;;;3.60;2.60;;;;;;;9.26;99.95;97095.19;108433;1262;61513;-88
2023/11/15 06:49:12;;;;;;;3.30;2.50;;;;;;;9.24;100.00;97094.05;108514;1262;59733;-89
2023/11/15 06:51:45;;;;;;;4.80;2.30;;;;;;;9.23;100.00;97093.92;108437;1263;72899;-89
2023/11/15 06:54:12;;;;;;;3.70;2.40;;;;;;;9.23;100.00;97095.41;108528;1262;75321;-88
2023/11/15 06:56:53;;;;;;;3.10;2.70;;;;;;;9.21;100.00;97095.89;108527;1262;72442;-89
2023/11/15 06:59:43;;;;;;;5.10;4.00;;;;;;;9.21;100.00;97097.38;107909;1262;62489;-84
2023/11/15 07:02:20;;;;;;;5.40;3.30;;;;;;;9.20;100.00;97100.11;108123;1264;59783;-84
2023/11/15 07:04:52;;;;;;;5.50;3.10;;;;;;;9.19;100.00;97097.38;108277;1262;74559;-84
2023/11/15 07:07:47;;;;;;;4.90;3.80;;;;;;;9.19;100.00;97099.70;108492;1256;73652;-84
2023/11/15 07:10:15;;;;;;;4.60;3.30;;;;;;;9.17;100.00;97104.83;108527;1257;73576;-86
2023/11/15 07:12:46;;;;;;;6.00;4.20;;;;;;;9.17;100.00;97102.67;108628;1256;62065;-84
2023/11/15 07:16:02;;;;;;;12.00;7.60;;;;;;;9.17;100.00;97107.16;108669;1256;59259;-85
2023/11/15 07:18:48;;;;;;;8.50;7.40;;;;;;;9.16;100.00;97106.75;108189;1260;74776;-85
2023/11/15 07:21:16;;;;;;;12.60;9.50;;;;;;;9.15;100.00;97108.98;108560;1260;73460;-87
2023/11/15 07:23:48;;;;;;;11.40;7.90;;;;;;;9.14;100.00;97108.86;108553;1260;71479;-87
2023/11/15 07:26:16;;;;;;;12.00;8.30;;;;;;;9.12;100.00;97109.72;108305;1262;62064;-88
2023/11/15 07:28:48;;;;;;;9.90;7.40;;;;;;;9.12;100.00;97111.19;108402;1260;59518;-87
2023/11/15 07:31:44;;;;;;;10.50;8.30;;;;;;;9.11;100.00;97114.05;108407;1260;73891;-87
2023/11/15 07:34:24;;;;;;;;;;;;;;;9.11;100.00;97114.98;108254;1260;75619;-87
2023/11/15 07:37:02;;;;;;;6.00;5.10;;;;;;;9.09;100.00;97115.52;108289;1260;74551;-87
2023/11/15 07:40:18;;;;;;;5.80;5.20;;;;;;;9.09;100.00;97115.56;108392;1261;63980;-88
2023/11/15 07:42:45;;;;;;;6.80;5.10;;;;;;;9.08;100.00;97120.98;108652;1256;59937;-85
2023/11/15 07:45:13;;;;;;;5.80;5.00;;;;;;;9.09;100.00;97122.16;108724;1256;73736;-86
2023/11/15 07:47:41;;;;;;;8.10;6.10;;;;;;;9.08;100.00;97125.23;108895;1256;73139;-86
2023/11/15 07:50:12;;;;;;;6.60;5.90;;;;;;;9.09;100.00;97124.86;108856;1256;71944;-86
2023/11/15 07:52:39;;;;;;;6.70;6.10;;;;;;;9.10;100.00;97124.91;108409;1256;61046;-88
2023/11/15 07:55:07;;;;;;;8.00;6.00;;;;;;;9.11;100.00;97123.77;108471;1257;60441;-85
2023/11/15 07:57:34;;;;;;;5.60;4.90;;;;;;;9.12;100.00;97127.25;108577;1256;73886;-88
2023/11/15 08:00:04;;;;;;;5.50;5.00;;;;;;;9.13;100.00;97125.39;108835;1256;73752;-87
2023/11/15 08:02:38;;;;;;;4.50;4.10;;;;;;;9.13;100.00;97127.84;108764;1256;73698;-87
2023/11/15 08:05:08;;;;;;;5.50;4.10;;;;;;;9.14;100.00;97125.85;108808;1256;62140;-88
2023/11/15 08:07:38;;;;;;;5.50;4.90;;;;;;;9.14;100.00;97128.87;108606;1256;59906;-86
2023/11/15 08:10:05;;;;;;;34.00;30.40;;;;;;;9.14;100.00;97131.34;108650;1258;73949;-86
2023/11/15 08:12:42;;;;;;;12.00;10.80;;;;;;;9.14;100.00;97135.83;108417;1256;74271;-86
2023/11/15 08:15:14;;;;;;;3.80;3.50;;;;;;;9.13;100.00;97137.34;108672;1256;74636;-87
2023/11/15 08:17:46;;;;;;;5.20;2.70;;;;;;;9.11;100.00;97139.45;108680;1256;61746;-87
2023/11/15 08:20:14;;;;;;;4.80;2.80;;;;;;;9.09;100.00;97140.20;108853;1256;60391;-87
2023/11/15 08:22:42;;;;;;;6.70;4.30;;;;;;;9.07;100.00;97141.46;108858;1257;73585;-88
2023/11/15 08:25:12;;;;;;;3.60;3.30;;;;;;;9.05;100.00;97142.08;108817;1258;75029;-88
2023/11/15 08:27:41;;;;;;;3.40;2.50;;;;;;;9.03;100.00;97143.63;108723;1256;74195;-87
2023/11/15 08:30:17;;;;;;;3.70;2.20;;;;;;;9.01;100.00;97141.29;108838;1256;60824;-87
2023/11/15 08:32:48;;;;;;;7.90;2.60;;;;;;;9.00;100.00;97144.42;108947;1257;59968;-87
2023/11/15 08:35:17;;;;;;;6.60;2.50;;;;;;;9.00;100.00;97144.14;108844;1256;73225;-87
2023/11/15 08:37:44;;;;;;;4.00;2.40;;;;;;;8.99;100.00;97143.45;108844;1256;74263;-88
2023/11/15 08:40:12;;;;;;;3.60;2.80;;;;;;;9.00;100.00;97145.56;108870;1257;71370;-85
2023/11/15 08:42:42;;;;;;;3.20;2.70;;;;;;;8.99;100.00;97149.54;108925;1256;60965;-86
2023/11/15 08:45:10;;;;;;;4.30;2.40;;;;;;;8.99;100.00;97150.41;108876;1256;60812;-84
2023/11/15 08:47:37;;;;;;;2.20;2.00;;;;;;;8.99;100.00;97154.67;108803;1257;75638;-86
2023/11/15 08:50:08;;;;;;;3.00;2.20;;;;;;;9.00;100.00;97152.70;108862;1257;74253;-85
2023/11/15 08:52:39;;;;;;;3.10;2.10;;;;;;;9.00;100.00;97153.21;108899;1256;72509;-85
2023/11/15 08:55:08;;;;;;;5.80;2.90;;;;;;;9.00;100.00;97156.25;108657;1257;62826;-85
2023/11/15 08:57:35;;;;;;;4.80;3.60;;;;;;;9.01;100.00;97160.46;108772;1257;60137;-86
2023/11/15 09:00:06;;;;;;;6.30;5.60;;;;;;;9.01;100.00;97161.85;108736;1256;71870;-86
2023/11/15 09:02:34;;;;;;;13.80;12.30;;;;;;;9.03;100.00;97166.73;108779;1259;74408;-88
2023/11/15 09:05:10;;;;;;;5.50;4.90;;;;;;;9.03;100.00;97171.19;108785;1256;73603;-89
2023/11/15 09:07:37;;;;;;;4.00;3.60;;;;;;;9.04;100.00;97166.10;108828;1256;61941;-88
2023/11/15 09:10:08;;;;;;;4.40;3.20;;;;;;;9.03;100.00;97167.44;109033;1256;58993;-88
2023/11/15 09:12:36;;;;;;;3.90;3.50;;;;;;;9.02;100.00;97164.08;108727;1256;265458;-89
2023/11/15 09:15:14;;;;;;;7.60;6.90;;;;;;;9.02;100.00;97166.62;108773;1256;75042;-89
2023/11/15 09:17:51;;;;;;;15.60;13.70;;;;;;;9.03;100.00;97170.29;108737;1257;71466;-91
2023/11/15 09:20:27;;;;;;;5.40;4.40;;;;;;;9.03;100.00;97170.66;108804;1256;60643;-90
2023/11/15 09:23:02;;;;;;;4.00;3.30;;;;;;;9.03;100.00;97173.45;108774;1257;60234;-91
2023/11/15 09:25:31;;;;;;;3.20;2.80;;;;;;;9.03;100.00;97174.21;108916;1256;73877;-91
2023/11/15 09:27:59;;;;;;;2.40;2.20;;;;;;;9.03;100.00;97175.40;108654;1256;74732;-90
2023/11/15 09:30:32;;;;;;;2.60;2.30;;;;;;;9.04;100.00;97173.23;108880;1256;72672;-89
2023/11/15 09:33:05;;;;;;;3.10;2.80;;;;;;;9.04;100.00;97173.63;109020;1256;60942;-89
2023/11/15 09:35:36;;;;;;;4.70;3.50;;;;;;;9.05;100.00;97173.86;108959;1256;60347;-89
2023/11/15 09:38:15;;;;;;;4.50;3.00;;;;;;;9.07;100.00;97171.63;108986;1256;72876;-90
2023/11/15 09:40:48;;;;;;;2.50;2.20;;;;;;;9.07;100.00;97169.59;109015;1256;74338;-90
2023/11/15 09:43:20;;;;;;;3.80;3.30;;;;;;;9.08;100.00;97170.27;108761;1256;72495;-89
2023/11/15 09:45:48;;;;;;;4.00;3.60;;;;;;;9.08;100.00;97174.00;108652;1256;62163;-90
2023/11/15 09:48:17;;;;;;;4.40;3.80;;;;;;;9.08;100.00;97171.66;108843;1256;59511;-89
2023/11/15 09:50:48;;;;;;;3.70;3.40;;;;;;;9.09;100.00;97170.88;108780;1256;74349;-90
2023/11/15 09:53:23;;;;;;;3.70;3.30;;;;;;;9.12;100.00;97172.64;108725;1256;73153;-89
2023/11/15 09:55:52;;;;;;;4.40;3.70;;;;;;;9.12;100.00;97165.96;108592;1256;72906;-91
2023/11/15 09:58:21;;;;;;;4.40;4.10;;;;;;;9.14;100.00;97165.25;108719;1256;60715;-86
2023/11/15 10:00:49;;;;;;;8.00;4.70;;;;;;;9.17;100.00;97164.55;108750;1256;60034;-86
2023/11/15 10:03:19;;;;;;;4.90;3.90;;;;;;;9.19;100.00;97167.70;108724;1256;73994;-87
2023/11/15 10:06:07;;;;;;;4.40;4.00;;;;;;;9.21;100.00;97166.98;108361;1256;73619;-87
2023/11/15 10:08:52;;;;;;;5.00;4.60;;;;;;;9.24;100.00;97162.66;108580;1256;73623;-87
2023/11/15 10:11:27;;;;;;;6.70;5.30;;;;;;;9.27;100.00;97159.94;108601;1256;62057;-89
2023/11/15 10:14:15;;;;;;;3.90;3.50;;;;;;;9.31;100.00;97161.39;108611;1257;60883;-90
2023/11/15 10:16:53;;;;;;;4.10;3.60;;;;;;;9.33;100.00;97160.63;108692;1256;73692;-89
2023/11/15 10:19:31;;;;;;;5.30;2.50;;;;;;;9.36;100.00;97160.55;108730;1256;73695;-89
2023/11/15 10:22:00;;;;;;;3.50;2.70;;;;;;;9.36;100.00;97158.23;108771;1256;73509;-89
2023/11/15 10:25:13;;;;;;;2.80;2.30;;;;;;;9.37;100.00;97156.58;108676;1256;63253;-90
2023/11/15 10:27:41;;;;;;;3.30;2.60;;;;;;;9.38;100.00;97161.67;108671;1258;61550;-88
2023/11/15 10:35:44;;;;;;;2.60;2.20;;;;;;;9.43;100.00;97163.07;105508;1292;600800;-86
2023/11/15 10:38:22;;;;;;;2.60;1.50;;;;;;;9.42;100.00;97170.30;107795;1269;61889;-90
2023/11/15 10:41:00;;;;;;;2.40;1.70;;;;;;;9.43;100.00;97170.58;107927;1269;59339;-90
2023/11/15 10:44:40;;;;;;;3.30;2.40;;;;;;;9.44;100.00;97164.59;107832;1271;70877;-90
2023/11/15 10:47:21;;;;;;;2.20;1.90;;;;;;;9.45;100.00;97164.52;107734;1272;73267;-90
2023/11/15 10:49:58;;;;;;;2.50;2.00;;;;;;;9.47;100.00;97162.55;107210;1271;347131;-90
2023/11/15 10:52:29;;;;;;;3.10;2.50;;;;;;;9.49;100.00;97162.34;107674;1270;62548;-91
2023/11/15 10:55:02;;;;;;;2.50;2.00;;;;;;;9.51;100.00;97165.63;107442;1271;61692;-91
2023/11/15 10:58:03;;;;;;;2.60;1.60;;;;;;;9.53;100.00;97167.91;107448;1273;72772;-90
2023/11/15 11:01:10;;;;;;;2.00;1.80;;;;;;;9.56;100.00;97169.29;107371;1271;73717;-88
2023/11/15 11:04:16;;;;;;;1.10;1.00;;;;;;;9.58;100.00;97171.95;107809;1270;72043;-87
2023/11/15 11:06:51;;;;;;;2.80;1.60;;;;;;;9.61;100.00;97177.80;107719;1270;59958;-88
2023/11/15 11:09:26;;;;;;;1.60;1.30;;;;;;;9.65;100.00;97177.13;107799;1272;61195;-88
2023/11/15 11:12:11;;;;;;;1.70;1.20;;;;;;;9.68;100.00;97173.96;107727;1271;72737;-89
2023/11/15 11:14:39;;;;;;;;;;;;;;;9.71;100.00;97181.96;107795;1270;75347;-87
2023/11/15 11:17:35;;;;;;;2.60;1.50;;;;;;;9.72;100.00;97178.45;107823;1271;72686;-87
2023/11/15 11:20:30;;;;;;;2.70;1.90;;;;;;;9.72;100.00;97182.17;107955;1269;60477;-87
2023/11/15 11:23:23;;;;;;;1.70;1.40;;;;;;;9.72;100.00;97184.88;108760;1260;60068;-89
2023/11/15 11:26:35;;;;;;;3.20;1.80;;;;;;;9.71;100.00;97191.23;108388;1264;72741;-86
2023/11/15 11:29:04;;;;;;;5.40;2.00;;;;;;;9.69;100.00;97194.41;108364;1264;74452;-88
2023/11/15 11:31:31;;;;;;;2.90;2.40;;;;;;;9.69;100.00;97198.14;108394;1264;72592;-88
2023/11/15 11:34:08;;;;;;;3.20;2.60;;;;;;;9.69;100.00;97198.86;108271;1271;60466;-88
2023/11/15 11:36:49;;;;;;;4.60;3.50;;;;;;;9.70;100.00;97193.30;108424;1268;60092;-87
2023/11/15 11:39:22;;;;;;;5.30;2.60;;;;;;;9.70;100.00;97194.57;108283;1264;74210;-86
2023/11/15 11:41:54;;;;;;;3.60;3.30;;;;;;;9.70;100.00;97197.91;108466;1263;73174;-86
2023/11/15 11:44:25;;;;;;;5.30;3.90;;;;;;;9.71;100.00;97198.35;108053;1266;71984;-89
2023/11/15 11:47:11;;;;;;;2.60;2.40;;;;;;;9.73;100.00;97198.94;108168;1269;62021;-87
2023/11/15 11:49:48;;;;;;;4.20;3.80;;;;;;;9.75;100.00;97199.45;108086;1266;60196;-89
2023/11/15 11:52:17;;;;;;;3.20;2.90;;;;;;;9.79;100.00;97202.77;108158;1267;73003;-86
2023/11/15 11:54:51;;;;;;;2.00;1.50;;;;;;;9.83;100.00;97203.66;108264;1267;74913;-86
2023/11/15 11:57:24;;;;;;;1.80;1.50;;;;;;;9.87;100.00;97202.62;108252;1267;71918;-88